Time;durP1;ratioP1;P1;durP2;ratioP2;P2;SDS_P1;SDS_P2;PMS_P1;PMS_P2;Temp;Humidity;BMP_temperature;BMP_pressure;BME280_temperature;BME280_humidity;BME280_pressure;Samples;Min_cycle;Max_cycle;Signal;HPM_P1;HPM_P2
2021/01/02 00:02:42;;;;;;;8.38;6.28;;;16.30;66.30;;;;;;10498560;28;20086;-63
2021/01/02 00:08:14;;;;;;;6.03;5.03;;;16.20;66.20;;;;;;10504296;28;20089;-63
2021/01/02 00:13:35;;;;;;;7.60;5.53;;;16.20;66.20;;;;;;10496384;28;20036;-64
2021/01/02 00:19:03;;;;;;;7.88;5.65;;;16.20;66.30;;;;;;10504000;28;20040;-63
2021/01/02 00:24:31;;;;;;;7.93;5.75;;;16.20;66.40;;;;;;10503699;28;20028;-63
2021/01/02 00:29:59;;;;;;;6.90;6.05;;;16.20;66.30;;;;;;10494064;28;20107;-63
2021/01/02 00:35:26;;;;;;;5.43;4.90;;;16.20;66.30;;;;;;10503332;28;20024;-63
2021/01/02 00:40:27;;;;;;;6.07;5.43;;;16.20;66.30;;;;;;10502116;28;20116;-63
2021/01/02 00:45:31;;;;;;;7.72;5.65;;;16.10;66.30;;;;;;10502765;28;20128;-63
2021/01/02 00:50:32;;;;;;;7.00;5.93;;;16.10;66.30;;;;;;10501380;28;20116;-62
2021/01/02 00:55:52;;;;;;;8.07;6.00;;;16.10;66.20;;;;;;10502239;28;20056;-62
2021/01/02 01:01:22;;;;;;;10.35;6.60;;;16.00;66.20;;;;;;10502284;28;20111;-62
2021/01/02 01:06:25;;;;;;;7.30;5.25;;;16.00;66.20;;;;;;10501801;28;20025;-63
2021/01/02 01:11:35;;;;;;;6.65;5.47;;;16.00;66.20;;;;;;10500193;28;20086;-63
2021/01/02 01:16:42;;;;;;;7.32;5.75;;;16.00;66.20;;;;;;10496317;28;20048;-63
2021/01/02 01:21:50;;;;;;;6.28;5.13;;;16.00;66.30;;;;;;10500656;28;20119;-62
2021/01/02 01:27:04;;;;;;;7.90;5.65;;;15.90;66.30;;;;;;10500052;28;20040;-62
2021/01/02 01:32:06;;;;;;;6.40;5.25;;;16.00;66.30;;;;;;10501021;28;20017;-62
2021/01/02 01:37:08;;;;;;;6.35;4.95;;;15.90;66.30;;;;;;10501028;28;20031;-62
2021/01/02 01:42:11;;;;;;;6.78;4.85;;;15.90;66.40;;;;;;10500668;28;20024;-63
2021/01/02 01:47:16;;;;;;;5.50;4.43;;;15.90;66.40;;;;;;10499289;28;20111;-63
2021/01/02 01:53:04;;;;;;;7.10;5.30;;;15.90;66.40;;;;;;10500311;28;20028;-61
2021/01/02 01:58:15;;;;;;;6.47;5.13;;;15.90;66.40;;;;;;10498905;28;20032;-62
2021/01/02 02:03:27;;;;;;;5.70;4.85;;;15.80;66.40;;;;;;10515798;28;20108;-62
2021/01/02 02:08:47;;;;;;;6.22;4.90;;;15.80;66.40;;;;;;10491880;28;20024;-63
2021/01/02 02:13:50;;;;;;;8.43;5.30;;;15.80;66.40;;;;;;10499292;28;20060;-63
2021/01/02 02:18:58;;;;;;;6.30;5.00;;;15.80;66.40;;;;;;10513230;28;20024;-63
2021/01/02 02:24:03;;;;;;;6.55;5.20;;;15.70;66.30;;;;;;10497264;28;20035;-63
2021/01/02 02:29:12;;;;;;;5.55;4.88;;;15.80;66.40;;;;;;10498850;28;20067;-62
2021/01/02 02:34:14;;;;;;;6.88;4.90;;;15.80;66.40;;;;;;10498640;28;20028;-62
2021/01/02 02:39:15;;;;;;;6.13;5.00;;;15.70;66.30;;;;;;10489928;28;20481;-63
2021/01/02 02:44:21;;;;;;;5.95;4.70;;;15.70;66.40;;;;;;10490479;28;20503;-63
2021/01/02 02:49:24;;;;;;;6.68;5.03;;;15.70;66.40;;;;;;10496870;28;20029;-62
2021/01/02 02:54:25;;;;;;;6.65;4.80;;;15.60;66.30;;;;;;10497688;28;20033;-62
2021/01/02 02:59:26;;;;;;;6.35;4.82;;;15.70;66.40;;;;;;10490170;28;20041;-62
2021/01/02 03:04:27;;;;;;;6.72;4.85;;;15.60;66.90;;;;;;10497106;28;20112;-62
2021/01/02 03:09:29;;;;;;;6.75;4.90;;;15.60;66.30;;;;;;10497228;28;20029;-63
2021/01/02 03:14:29;;;;;;;5.50;4.03;;;15.60;66.40;;;;;;10496636;28;20504;-62
2021/01/02 03:19:34;;;;;;;5.03;4.28;;;15.60;66.40;;;;;;10496891;28;20115;-63
2021/01/02 03:24:34;;;;;;;4.70;4.22;;;15.60;66.40;;;;;;10495698;28;20474;-63
2021/01/02 03:29:35;;;;;;;6.13;4.78;;;15.50;66.40;;;;;;10496871;28;20051;-62
2021/01/02 03:34:37;;;;;;;5.75;4.43;;;15.60;66.40;;;;;;10496127;28;20123;-62
2021/01/02 03:39:38;;;;;;;6.05;5.30;;;15.60;66.40;;;;;;10496624;28;20119;-63
2021/01/02 03:44:38;;;;;;;5.55;4.40;;;15.50;66.30;;;;;;10496598;28;20025;-63
2021/01/02 03:49:39;;;;;;;5.85;3.90;;;15.50;66.30;;;;;;10496499;28;20480;-63
2021/01/02 03:54:40;;;;;;;6.53;5.10;;;15.50;66.30;;;;;;10482194;28;20055;-63
2021/01/02 03:59:41;;;;;;;6.40;4.90;;;15.50;66.90;;;;;;10495347;28;20151;-62
2021/01/02 04:04:41;;;;;;;5.22;4.32;;;15.50;66.30;;;;;;10496060;28;20396;-62
2021/01/02 04:09:42;;;;;;;6.22;4.78;;;15.50;66.30;;;;;;10495994;28;20103;-63
2021/01/02 04:14:43;;;;;;;6.35;4.63;;;15.50;66.40;;;;;;10495577;28;20099;-63
2021/01/02 04:19:43;;;;;;;7.43;4.88;;;15.40;66.30;;;;;;10495686;28;20472;-62
2021/01/02 04:24:44;;;;;;;6.80;4.85;;;15.40;66.30;;;;;;10495363;28;20548;-63
2021/01/02 04:29:45;;;;;;;6.63;5.00;;;15.40;66.30;;;;;;10495722;28;20103;-61
2021/01/02 04:34:46;;;;;;;6.05;4.20;;;15.40;66.20;;;;;;10494454;28;20158;-62
2021/01/02 04:39:47;;;;;;;6.95;5.53;;;15.40;66.30;;;;;;10495540;28;20133;-62
2021/01/02 04:44:49;;;;;;;5.40;4.30;;;15.40;66.30;;;;;;10495393;28;20123;-62
2021/01/02 04:49:51;;;;;;;5.32;4.30;;;15.30;66.40;;;;;;10500664;28;20475;-62
2021/01/02 04:54:51;;;;;;;7.20;5.07;;;15.30;66.30;;;;;;10501352;28;20109;-62
2021/01/02 04:59:52;;;;;;;5.90;4.18;;;15.30;66.30;;;;;;10501957;28;20553;-62
2021/01/02 05:04:53;;;;;;;5.50;4.07;;;15.30;66.20;;;;;;10500191;28;20038;-62
2021/01/02 05:09:55;;;;;;;6.68;4.63;;;15.30;66.20;;;;;;10501760;28;20099;-62
2021/01/02 05:15:09;;;;;;;7.28;5.47;;;15.30;66.30;;;;;;10501157;28;20044;-62
2021/01/02 05:20:13;;;;;;;7.30;5.47;;;15.20;66.30;;;;;;10501585;28;20024;-62
2021/01/02 05:25:18;;;;;;;6.85;3.85;;;15.30;66.20;;;;;;10494445;28;20021;-62
2021/01/02 05:30:20;;;;;;;6.28;5.22;;;15.30;66.20;;;;;;10497183;28;20419;-62
2021/01/02 05:35:22;;;;;;;4.95;4.00;;;15.20;66.20;;;;;;10501298;28;20041;-62
2021/01/02 05:40:38;;;;;;;7.10;5.35;;;15.20;66.20;;;;;;10500935;28;20028;-62
2021/01/02 05:45:40;;;;;;;5.75;4.15;;;15.20;66.20;;;;;;10500353;28;20087;-62
2021/01/02 05:50:46;;;;;;;6.20;5.05;;;15.20;66.20;;;;;;10499317;28;20037;-62
2021/01/02 05:55:56;;;;;;;6.10;4.05;;;15.20;66.30;;;;;;10498427;28;20032;-62
2021/01/02 06:01:19;;;;;;;5.00;3.92;;;15.20;66.30;;;;;;10499060;28;20024;-61
2021/01/02 06:06:20;;;;;;;5.50;4.00;;;15.40;66.10;;;;;;10496986;28;20511;-62
2021/01/02 06:11:24;;;;;;;5.82;4.20;;;15.50;65.70;;;;;;10477123;28;20033;-62
2021/01/02 06:16:25;;;;;;;5.35;4.43;;;15.90;65.10;;;;;;10497083;28;20049;-62
2021/01/02 06:21:29;;;;;;;4.82;3.70;;;16.00;64.60;;;;;;10480741;28;20060;-62
2021/01/02 06:26:30;;;;;;;4.85;3.50;;;16.30;64.20;;;;;;10497945;28;20115;-62
2021/01/02 06:31:34;;;;;;;4.22;3.33;;;16.40;63.90;;;;;;10497854;28;20028;-62
2021/01/02 06:36:37;;;;;;;6.47;4.50;;;16.50;63.70;;;;;;10498440;28;20032;-63
2021/01/02 06:41:37;;;;;;;5.20;4.10;;;16.60;63.50;;;;;;10498660;28;20024;-63
2021/01/02 06:46:38;;;;;;;4.10;3.20;;;16.70;63.20;;;;;;10497443;28;20123;-62
2021/01/02 06:51:39;;;;;;;6.55;4.10;;;16.80;63.10;;;;;;10497360;28;20099;-62
2021/01/02 06:56:39;;;;;;;4.75;3.92;;;16.90;62.90;;;;;;10497443;28;20112;-62
2021/01/02 07:01:41;;;;;;;8.80;3.50;;;16.90;62.80;;;;;;10497430;28;20498;-60
2021/01/02 07:06:43;;;;;;;7.97;3.25;;;16.90;62.90;;;;;;10497320;28;20029;-61
2021/01/02 07:11:49;;;;;;;8.57;3.85;;;16.90;64.40;;;;;;10496246;28;20137;-59
2021/01/02 07:17:01;;;;;;;8.85;3.95;;;16.90;64.60;;;;;;10495580;28;20543;-60
2021/01/02 07:22:15;;;;;;;4.82;3.15;;;16.90;65.10;;;;;;10497262;28;20023;-62
2021/01/02 07:27:23;;;;;;;12.23;4.05;;;16.90;65.70;;;;;;10496427;28;20112;-63
2021/01/02 07:32:29;;;;;;;12.10;4.60;;;16.90;65.30;;;;;;10496525;28;20524;-61
2021/01/02 07:37:33;;;;;;;10.38;4.40;;;16.80;65.00;;;;;;10493189;28;20041;-57
2021/01/02 07:42:39;;;;;;;11.95;4.68;;;16.80;65.50;;;;;;10495197;28;20028;-61
2021/01/02 07:47:56;;;;;;;11.15;5.47;;;16.80;66.10;;;;;;10492548;28;20118;-62
2021/01/02 07:53:00;;;;;;;12.65;5.72;;;16.90;65.30;;;;;;10494715;28;20040;-63
2021/01/02 07:58:02;;;;;;;12.82;4.35;;;16.90;65.30;;;;;;10495005;28;20035;-63
2021/01/02 08:03:05;;;;;;;7.65;4.38;;;16.90;65.30;;;;;;10491292;28;20028;-65
2021/01/02 08:08:08;;;;;;;12.52;4.75;;;16.80;65.20;;;;;;10492640;28;20032;-66
2021/01/02 08:13:15;;;;;;;10.27;5.75;;;16.90;64.80;;;;;;10495515;28;20027;-64
2021/01/02 08:18:16;;;;;;;6.82;4.80;;;16.90;64.50;;;;;;10493447;28;20098;-66
2021/01/02 08:23:18;;;;;;;7.57;4.65;;;16.90;64.20;;;;;;10498752;28;20565;-67
2021/01/02 08:28:19;;;;;;;9.60;5.30;;;16.90;64.10;;;;;;10503639;28;20108;-65
2021/01/02 08:33:21;;;;;;;14.50;5.88;;;16.90;64.10;;;;;;10502350;28;20092;-68
2021/01/02 08:38:28;;;;;;;20.00;6.57;;;16.90;64.70;;;;;;10503168;28;20029;-67
2021/01/02 08:43:29;;;;;;;19.58;8.82;;;16.80;64.10;;;;;;10500631;28;20020;-65
2021/01/02 08:48:31;;;;;;;12.23;7.40;;;16.80;63.60;;;;;;10501733;28;20052;-66
2021/01/02 08:53:32;;;;;;;19.20;9.43;;;16.80;63.40;;;;;;10500390;28;20509;-66
2021/01/02 08:58:36;;;;;;;14.27;8.13;;;16.80;63.50;;;;;;10501576;28;20131;-66
2021/01/02 09:03:36;;;;;;;13.55;7.38;;;16.80;63.40;;;;;;10499527;28;20025;-65
2021/01/02 09:08:37;;;;;;;13.55;8.15;;;16.70;63.50;;;;;;10499439;28;20113;-66
2021/01/02 09:13:38;;;;;;;14.93;8.15;;;16.80;63.50;;;;;;10497906;28;20119;-66
2021/01/02 09:18:41;;;;;;;12.15;6.75;;;16.70;64.20;;;;;;10500294;28;20040;-67
2021/01/02 09:23:43;;;;;;;12.45;7.68;;;16.70;63.50;;;;;;10515460;28;20059;-66
2021/01/02 09:28:44;;;;;;;13.40;7.20;;;16.70;63.50;;;;;;10499680;28;20021;-66
2021/01/02 09:33:46;;;;;;;13.13;7.72;;;16.70;63.60;;;;;;10498865;28;20495;-66
2021/01/02 09:38:49;;;;;;;9.85;6.30;;;16.70;63.50;;;;;;10500201;28;20473;-67
2021/01/02 09:43:54;;;;;;;11.43;7.32;;;16.70;63.60;;;;;;10499547;28;20020;-67
2021/01/02 09:48:57;;;;;;;11.18;6.55;;;16.70;63.50;;;;;;10499775;28;20086;-66
2021/01/02 09:53:58;;;;;;;10.43;6.70;;;16.70;63.40;;;;;;10499384;28;20016;-66
2021/01/02 09:58:58;;;;;;;9.68;6.32;;;16.70;63.30;;;;;;10499241;28;20024;-67
2021/01/02 10:03:59;;;;;;;10.27;6.90;;;16.70;63.40;;;;;;10498200;28;20108;-66
2021/01/02 10:09:00;;;;;;;12.00;6.93;;;16.70;63.50;;;;;;10499096;28;20052;-64
2021/01/02 10:14:00;;;;;;;12.57;6.88;;;16.70;63.30;;;;;;10497847;28;20502;-62
2021/01/02 10:19:01;;;;;;;16.58;7.63;;;16.70;63.50;;;;;;10497120;28;20028;-59
2021/01/02 10:24:02;;;;;;;14.45;6.97;;;16.70;64.00;;;;;;10476539;28;20028;-60
2021/01/02 10:29:04;;;;;;;17.33;8.43;;;16.80;64.00;;;;;;10487924;28;20020;-57
2021/01/02 10:34:05;;;;;;;18.48;7.88;;;16.80;64.30;;;;;;10497447;28;20027;-60
2021/01/02 10:39:06;;;;;;;22.75;9.57;;;16.80;64.60;;;;;;10498026;28;20028;-60
2021/01/02 10:44:07;;;;;;;21.67;8.63;;;16.80;64.60;;;;;;10497023;28;20031;-61
2021/01/02 10:49:09;;;;;;;20.85;8.55;;;16.80;64.70;;;;;;10476088;28;20036;-60
2021/01/02 10:54:10;;;;;;;20.50;8.98;;;16.70;64.80;;;;;;10497869;28;20031;-60
2021/01/02 10:59:11;;;;;;;20.08;8.50;;;16.70;64.90;;;;;;10495990;28;20058;-60
2021/01/02 11:04:13;;;;;;;13.32;8.43;;;16.60;65.00;;;;;;10490170;28;20487;-59
2021/01/02 11:09:14;;;;;;;13.35;8.45;;;16.60;65.20;;;;;;10487150;28;20544;-60
2021/01/02 11:14:15;;;;;;;17.50;8.63;;;16.60;65.40;;;;;;10472174;28;20064;-64
2021/01/02 11:19:21;;;;;;;18.55;8.80;;;16.50;65.80;;;;;;10495342;28;20067;-59
2021/01/02 11:24:28;;;;;;;23.25;9.50;;;16.60;66.10;;;;;;10496337;28;20123;-61
2021/01/02 11:29:30;;;;;;;36.50;10.15;;;16.60;66.80;;;;;;10495172;28;20024;-60
2021/01/02 11:34:31;;;;;;;25.42;10.60;;;16.60;67.40;;;;;;10495842;28;20043;-61
2021/01/02 11:39:32;;;;;;;19.60;9.02;;;16.70;67.20;;;;;;10496342;28;20051;-60
2021/01/02 11:44:33;;;;;;;19.60;7.82;;;16.80;67.80;;;;;;10496104;28;20031;-60
2021/01/02 11:49:36;;;;;;;18.80;8.00;;;17.00;67.00;;;;;;10490682;28;20025;-60
2021/01/02 11:54:37;;;;;;;20.85;8.38;;;17.00;67.00;;;;;;10473353;28;20029;-65
2021/01/02 11:59:41;;;;;;;17.55;8.68;;;17.10;66.80;;;;;;10485124;28;20099;-66
2021/01/02 12:04:44;;;;;;;19.23;8.02;;;17.10;66.50;;;;;;10474802;28;20060;-67
2021/01/02 12:09:45;;;;;;;18.15;8.43;;;17.10;66.40;;;;;;10500322;28;20064;-67
2021/01/02 12:14:46;;;;;;;20.65;8.52;;;17.10;66.70;;;;;;10501919;28;20155;-66
2021/01/02 12:19:46;;;;;;;20.67;8.07;;;17.00;66.90;;;;;;10489652;28;20040;-66
2021/01/02 12:24:47;;;;;;;16.60;7.65;;;17.00;66.90;;;;;;10503428;28;20476;-65
2021/01/02 12:29:48;;;;;;;18.05;7.38;;;17.00;66.70;;;;;;10503396;28;20029;-66
2021/01/02 12:34:49;;;;;;;20.00;7.85;;;17.00;66.50;;;;;;10518808;28;20031;-64
2021/01/02 12:39:49;;;;;;;19.13;9.52;;;16.90;66.30;;;;;;10502384;28;20063;-65
2021/01/02 12:44:50;;;;;;;14.45;7.78;;;16.90;66.20;;;;;;10501596;28;20035;-65
2021/01/02 12:49:51;;;;;;;20.42;8.32;;;17.00;66.30;;;;;;10502121;28;20024;-65
2021/01/02 12:54:52;;;;;;;14.85;8.27;;;17.00;66.20;;;;;;10500917;28;20121;-65
2021/01/02 12:59:55;;;;;;;14.18;7.05;;;17.00;66.10;;;;;;10500529;28;20392;-64
2021/01/02 13:04:55;;;;;;;14.82;8.15;;;17.00;65.90;;;;;;10499615;28;20029;-65
2021/01/02 13:09:56;;;;;;;16.27;7.95;;;17.00;65.90;;;;;;10498869;28;20103;-65
2021/01/02 13:14:57;;;;;;;11.27;7.93;;;17.00;65.80;;;;;;10498986;28;20044;-66
2021/01/02 13:19:57;;;;;;;14.73;7.82;;;17.00;65.80;;;;;;10501810;28;20104;-65
2021/01/02 13:24:58;;;;;;;11.13;7.50;;;17.00;65.80;;;;;;10488255;28;20021;-65
2021/01/02 13:29:59;;;;;;;9.85;6.38;;;17.10;65.60;;;;;;10500852;28;20402;-66
2021/01/02 13:35:00;;;;;;;10.75;6.47;;;17.10;65.50;;;;;;10500839;28;20074;-65
2021/01/02 13:40:02;;;;;;;10.07;6.35;;;17.10;66.00;;;;;;10500905;28;20028;-65
2021/01/02 13:45:06;;;;;;;11.95;7.60;;;17.10;65.30;;;;;;10499071;28;20704;-66
2021/01/02 13:50:07;;;;;;;13.30;6.80;;;17.10;65.30;;;;;;10500463;28;20396;-66
2021/01/02 13:55:09;;;;;;;11.38;7.68;;;17.10;65.20;;;;;;10500135;28;20472;-66
2021/01/02 14:00:11;;;;;;;18.17;7.57;;;17.10;65.30;;;;;;10514971;28;20346;-65
2021/01/02 14:05:12;;;;;;;11.45;6.55;;;17.20;65.30;;;;;;10499801;28;20032;-66
2021/01/02 14:10:14;;;;;;;13.27;6.43;;;17.10;65.10;;;;;;10495568;28;20059;-67
2021/01/02 14:15:15;;;;;;;11.25;6.75;;;17.20;65.00;;;;;;10499184;28;20044;-66
2021/01/02 14:20:16;;;;;;;11.52;7.30;;;17.20;65.00;;;;;;10496488;28;20039;-66
2021/01/02 14:25:17;;;;;;;12.32;6.60;;;17.20;64.90;;;;;;10498078;28;20358;-65
2021/01/02 14:30:18;;;;;;;9.13;6.22;;;17.20;64.80;;;;;;10497813;28;20028;-65
2021/01/02 14:35:19;;;;;;;18.45;7.43;;;17.20;64.80;;;;;;10498397;28;20090;-66
2021/01/02 14:40:20;;;;;;;14.85;7.40;;;17.20;64.50;;;;;;10498231;28;20117;-67
2021/01/02 14:45:21;;;;;;;15.32;7.63;;;17.20;64.70;;;;;;10497157;28;20039;-66
2021/01/02 14:50:21;;;;;;;18.83;7.25;;;17.20;65.30;;;;;;10495300;28;20171;-62
2021/01/02 14:55:22;;;;;;;13.13;8.38;;;17.20;66.20;;;;;;10496118;28;20028;-59
2021/01/02 15:00:23;;;;;;;15.43;7.13;;;17.30;66.20;;;;;;10496567;28;20570;-56
2021/01/02 15:05:24;;;;;;;14.95;7.03;;;17.30;66.30;;;;;;10496101;28;20039;-58
2021/01/02 15:10:26;;;;;;;15.27;7.50;;;17.40;66.20;;;;;;10491742;28;20307;-59
2021/01/02 15:15:27;;;;;;;18.20;6.82;;;17.40;66.50;;;;;;10463741;28;20148;-58
2021/01/02 15:20:28;;;;;;;13.02;6.47;;;17.30;66.80;;;;;;10460675;28;20051;-58
2021/01/02 15:25:29;;;;;;;13.60;6.50;;;17.30;66.40;;;;;;10472696;28;20032;-59
2021/01/02 15:30:30;;;;;;;22.23;9.20;;;17.30;66.10;;;;;;10496703;28;20025;-59
2021/01/02 15:35:32;;;;;;;18.00;8.10;;;17.30;66.20;;;;;;10494992;28;20097;-58
2021/01/02 15:40:33;;;;;;;32.85;9.07;;;17.30;66.50;;;;;;10490695;28;20473;-61
2021/01/02 15:45:34;;;;;;;21.55;7.30;;;17.40;66.50;;;;;;10491158;28;20040;-60
2021/01/02 15:50:35;;;;;;;14.15;7.50;;;17.60;66.30;;;;;;10492881;28;20024;-61
2021/01/02 15:55:37;;;;;;;14.93;7.07;;;17.70;66.10;;;;;;10495512;28;20123;-62
2021/01/02 16:00:38;;;;;;;14.85;7.70;;;17.80;67.30;;;;;;10495080;28;20103;-63
2021/01/02 16:05:40;;;;;;;17.75;8.73;;;17.80;69.50;;;;;;10494738;28;20108;-63
2021/01/02 16:10:41;;;;;;;20.30;8.75;;;17.80;71.90;;;;;;10491889;28;20032;-64
2021/01/02 16:15:41;;;;;;;18.92;7.75;;;17.80;73.70;;;;;;10496220;28;20095;-63
2021/01/02 16:20:42;;;;;;;22.58;8.82;;;17.90;73.90;;;;;;10477483;28;20521;-62
2021/01/02 16:25:43;;;;;;;150.05;96.82;;;17.90;73.20;;;;;;10471758;28;20061;-62
2021/01/02 16:30:58;;;;;;;88.00;52.45;;;18.00;72.80;;;;;;10480730;28;20028;-65
2021/01/02 16:35:59;;;;;;;80.53;50.72;;;18.00;72.70;;;;;;10479479;28;20552;-63
2021/01/02 16:40:59;;;;;;;83.57;46.42;;;18.00;72.00;;;;;;10488053;28;20032;-64
2021/01/02 16:46:01;;;;;;;75.28;42.88;;;17.90;71.50;;;;;;10496158;28;20117;-62
2021/01/02 16:51:02;;;;;;;59.60;35.60;;;17.90;70.20;;;;;;10502640;28;20032;-61
2021/01/02 16:56:03;;;;;;;49.15;30.13;;;17.90;69.60;;;;;;10502114;28;20024;-59
2021/01/02 17:01:03;;;;;;;48.60;27.25;;;17.80;68.60;;;;;;10501993;28;20035;-59
2021/01/02 17:06:06;;;;;;;39.65;23.58;;;17.80;68.20;;;;;;10501944;28;20115;-61
2021/01/02 17:11:07;;;;;;;33.05;22.60;;;17.90;68.00;;;;;;10500911;28;20364;-61
2021/01/02 17:16:08;;;;;;;38.70;23.80;;;17.90;68.50;;;;;;10500562;28;20055;-61
2021/01/02 17:21:11;;;;;;;39.63;23.88;;;18.10;69.90;;;;;;10480654;28;20074;-64
2021/01/02 17:26:24;;;;;;;34.10;22.08;;;18.20;68.80;;;;;;10474117;28;20047;-59
2021/01/02 17:31:44;;;;;;;30.13;21.45;;;18.30;69.50;;;;;;10496437;28;20043;-62
2021/01/02 17:36:49;;;;;;;28.45;19.55;;;18.20;70.10;;;;;;10499874;28;20120;-61
2021/01/02 17:41:50;;;;;;;30.75;21.38;;;18.20;71.00;;;;;;10500708;28;20051;-60
2021/01/02 17:46:54;;;;;;;29.02;19.83;;;18.10;70.20;;;;;;10500258;28;20043;-60
2021/01/02 17:51:58;;;;;;;31.33;19.30;;;18.00;71.00;;;;;;10498824;28;20036;-63
2021/01/02 17:56:58;;;;;;;27.98;18.77;;;18.10;70.00;;;;;;10489853;28;20381;-63
2021/01/02 18:02:02;;;;;;;27.40;17.52;;;17.90;69.70;;;;;;10498707;28;20068;-62
2021/01/02 18:07:04;;;;;;;24.85;16.60;;;17.90;69.50;;;;;;10482126;28;20070;-62
2021/01/02 18:12:05;;;;;;;24.95;17.65;;;17.90;69.20;;;;;;10498768;28;20021;-63
2021/01/02 18:17:07;;;;;;;25.08;16.42;;;17.90;69.00;;;;;;10480913;28;20070;-63
2021/01/02 18:22:07;;;;;;;25.88;16.00;;;17.90;69.00;;;;;;10499373;28;20024;-62
2021/01/02 18:27:11;;;;;;;24.98;16.33;;;17.80;69.20;;;;;;10499056;28;20041;-62
2021/01/02 18:32:12;;;;;;;24.63;15.93;;;17.80;69.10;;;;;;10468466;28;20424;-63
2021/01/02 18:37:13;;;;;;;19.40;15.20;;;17.80;69.00;;;;;;10486708;28;20082;-63
2021/01/02 18:42:16;;;;;;;18.83;14.02;;;17.80;69.00;;;;;;10468495;28;20028;-61
2021/01/02 18:47:16;;;;;;;19.33;13.63;;;17.80;68.90;;;;;;10468533;28;20036;-61
2021/01/02 18:52:17;;;;;;;19.10;14.00;;;17.70;68.90;;;;;;10458930;28;20388;-62
2021/01/02 18:57:18;;;;;;;20.88;12.93;;;17.80;68.70;;;;;;10499914;28;20396;-60
2021/01/02 19:02:19;;;;;;;28.08;15.27;;;17.70;68.50;;;;;;10497713;28;20033;-60
2021/01/02 19:07:21;;;;;;;20.70;13.32;;;17.70;68.60;;;;;;10496955;28;20119;-61
2021/01/02 19:12:21;;;;;;;18.58;12.75;;;17.70;68.60;;;;;;10497303;28;20036;-61
2021/01/02 19:17:22;;;;;;;18.30;12.18;;;17.80;68.50;;;;;;10497008;28;20052;-61
2021/01/02 19:22:24;;;;;;;20.90;12.27;;;17.80;68.40;;;;;;10497073;28;20119;-62
2021/01/02 19:27:24;;;;;;;21.10;11.85;;;17.80;68.30;;;;;;10496611;28;20119;-61
2021/01/02 19:32:25;;;;;;;17.23;11.38;;;17.80;68.20;;;;;;10495868;28;20024;-61
2021/01/02 19:37:26;;;;;;;19.35;12.52;;;17.80;68.20;;;;;;10496625;28;20120;-62
2021/01/02 19:42:27;;;;;;;17.00;11.60;;;17.90;68.30;;;;;;10496484;28;20108;-62
2021/01/02 19:47:28;;;;;;;18.75;13.02;;;17.90;68.00;;;;;;10496304;28;20036;-61
2021/01/02 19:52:29;;;;;;;18.77;11.55;;;17.90;68.00;;;;;;10496633;28;20012;-61
2021/01/02 19:57:30;;;;;;;15.70;11.18;;;17.90;68.00;;;;;;10486060;28;20932;-62
2021/01/02 20:02:30;;;;;;;14.48;10.13;;;17.90;68.00;;;;;;10464712;28;20029;-63
2021/01/02 20:07:32;;;;;;;16.00;10.68;;;17.90;68.00;;;;;;10478278;28;20024;-62
2021/01/02 20:12:33;;;;;;;17.35;11.25;;;17.90;68.50;;;;;;10470230;28;20041;-61
2021/01/02 20:17:36;;;;;;;14.35;10.32;;;17.80;67.90;;;;;;10460191;28;20507;-61
2021/01/02 20:22:36;;;;;;;15.43;10.63;;;17.80;67.90;;;;;;10479755;28;20089;-61
2021/01/02 20:27:37;;;;;;;15.90;11.55;;;17.70;68.00;;;;;;10505004;28;20097;-61
2021/01/02 20:32:38;;;;;;;14.88;9.32;;;17.70;68.10;;;;;;10502504;28;20024;-63
2021/01/02 20:37:39;;;;;;;13.25;9.88;;;17.60;68.10;;;;;;10502121;28;20111;-61
2021/01/02 20:42:39;;;;;;;14.55;9.65;;;17.60;68.20;;;;;;10501465;28;20016;-61
2021/01/02 20:47:40;;;;;;;13.23;10.13;;;17.50;68.50;;;;;;10498268;28;20123;-61
2021/01/02 20:52:41;;;;;;;21.73;11.50;;;17.40;68.60;;;;;;10502058;28;20056;-61
2021/01/02 20:57:41;;;;;;;21.92;11.23;;;17.30;68.60;;;;;;10501338;28;20436;-61
2021/01/02 21:02:42;;;;;;;15.82;11.20;;;17.30;68.80;;;;;;10500784;28;20493;-61
2021/01/02 21:07:43;;;;;;;16.25;10.38;;;17.20;68.70;;;;;;10499573;28;20028;-62
2021/01/02 21:12:43;;;;;;;16.13;11.13;;;17.20;68.80;;;;;;10500209;28;20108;-61
2021/01/02 21:17:44;;;;;;;14.00;9.80;;;17.10;68.60;;;;;;10500485;28;20144;-61
2021/01/02 21:22:45;;;;;;;16.10;10.88;;;17.00;68.60;;;;;;10500818;28;20033;-62
2021/01/02 21:27:45;;;;;;;16.38;10.05;;;17.00;68.60;;;;;;10501612;28;20115;-61
2021/01/02 21:32:46;;;;;;;17.25;11.05;;;16.90;68.50;;;;;;10501623;28;20028;-61
2021/01/02 21:37:47;;;;;;;15.25;9.27;;;16.90;68.60;;;;;;10494004;28;20112;-61
2021/01/02 21:42:48;;;;;;;11.60;9.07;;;16.90;68.50;;;;;;10501164;28;20099;-62
2021/01/02 21:47:50;;;;;;;13.27;10.98;;;16.80;68.30;;;;;;10500574;28;20427;-61
2021/01/02 21:52:52;;;;;;;15.77;10.43;;;16.80;68.30;;;;;;10500630;28;20498;-61
2021/01/02 21:57:52;;;;;;;18.52;10.85;;;16.70;68.20;;;;;;10500040;28;20366;-62
2021/01/02 22:02:53;;;;;;;12.77;9.93;;;16.70;68.20;;;;;;10498071;28;20074;-61
2021/01/02 22:07:54;;;;;;;13.45;9.38;;;16.70;68.20;;;;;;10499270;28;20047;-61
2021/01/02 22:12:55;;;;;;;16.15;10.70;;;16.60;68.00;;;;;;10499594;28;20462;-61
2021/01/02 22:17:56;;;;;;;18.30;10.35;;;16.60;68.10;;;;;;10499484;28;20409;-62
2021/01/02 22:22:57;;;;;;;12.80;9.05;;;16.50;68.10;;;;;;10499157;28;20029;-61
2021/01/02 22:27:57;;;;;;;13.68;10.27;;;16.50;68.10;;;;;;10498982;28;20039;-61
2021/01/02 22:32:58;;;;;;;12.55;9.32;;;16.50;68.10;;;;;;10499202;28;20056;-61
2021/01/02 22:37:59;;;;;;;14.23;9.65;;;16.40;68.20;;;;;;10496688;28;20039;-61
2021/01/02 22:42:59;;;;;;;14.68;9.63;;;16.40;68.10;;;;;;10496734;28;20329;-62
2021/01/02 22:48:00;;;;;;;12.68;8.65;;;16.30;68.20;;;;;;10498166;28;20032;-62
2021/01/02 22:53:01;;;;;;;13.48;8.85;;;16.30;68.20;;;;;;10496983;28;20477;-61
2021/01/02 22:58:02;;;;;;;11.45;8.80;;;16.30;68.10;;;;;;10497993;28;20036;-62
2021/01/02 23:03:04;;;;;;;12.23;9.02;;;16.30;68.10;;;;;;10497802;28;20033;-61
2021/01/02 23:08:05;;;;;;;14.65;10.32;;;16.20;68.10;;;;;;10494404;28;20037;-61
2021/01/02 23:13:06;;;;;;;12.10;9.25;;;16.20;68.70;;;;;;10496329;28;20036;-61
2021/01/02 23:18:07;;;;;;;14.07;9.18;;;16.20;68.10;;;;;;10494387;28;20068;-62
2021/01/02 23:23:08;;;;;;;11.70;8.82;;;16.10;68.10;;;;;;10495518;28;20451;-61
2021/01/02 23:28:09;;;;;;;12.77;9.23;;;16.10;68.10;;;;;;10495115;28;20032;-62
2021/01/02 23:33:10;;;;;;;11.88;9.07;;;16.10;68.10;;;;;;10494232;28;20116;-62
2021/01/02 23:38:10;;;;;;;12.52;9.40;;;16.10;68.10;;;;;;10495165;28;20036;-62
2021/01/02 23:43:11;;;;;;;10.52;8.20;;;16.10;68.10;;;;;;10494897;28;20040;-62
2021/01/02 23:48:12;;;;;;;12.35;9.85;;;16.00;68.00;;;;;;10495067;28;20141;-62
2021/01/02 23:53:12;;;;;;;11.38;9.27;;;16.00;68.00;;;;;;10493526;28;20028;-62
2021/01/02 23:58:13;;;;;;;11.68;8.60;;;16.00;68.00;;;;;;10494249;28;20033;-62
